Terminal Aerodrome Forecast
Issued by NWS Sterling, VA

Current Version | Previous Version | Text Only | Print | Product List | Glossary Off
Versions: 1 2 3 4 5 6 7 8 9 10 11 12 13 14 15

000
FTUS41 KLWX 221200 AAA
TAFMRB
TAF AMD
KMRB 221241Z 2213/2312 35013KT P6SM SCT020 OVC035
      TEMPO 2213/2215 BKN020 OVC035
     FM221600 35015G23KT P6SM OVC035
     FM222200 34017G26KT P6SM BKN035
     FM230300 33018G27KT P6SM SCT080
     FM230900 31015G23KT P6SM BKN025=

USA.gov is the U.S. government's official web portal to all federal, state and local government web resources and services.